Air Navigation Services of Czech Republic
Airport: LKLN Updated:  29.04.2017 07:06:06  UTC
 METAR LKLN 29.04. 07:00 ...
METAR LKLN 290700Z AUTO 22005KT 200V260 9000 OVC042 05/03 Q1017=